Time;durP1;ratioP1;P1;durP2;ratioP2;P2;SDS_P1;SDS_P2;PMS_P1;PMS_P2;Temp;Humidity;BMP_temperature;BMP_pressure;BME280_temperature;BME280_humidity;BME280_pressure;Samples;Min_cycle;Max_cycle;Signal;HPM_P1;HPM_P2
2022/05/08 00:01:08;;;;;;;;;;;12.10;99.90;;;;;;10311406;28;85810;-49
2022/05/08 00:06:11;;;;;;;;;;;12.00;99.90;;;;;;10329898;28;84141;-53
2022/05/08 00:11:11;;;;;;;;;;;11.90;99.90;;;;;;10328052;28;84912;-55
2022/05/08 00:16:12;;;;;;;;;;;11.80;99.90;;;;;;10310736;28;85066;-52
2022/05/08 00:21:12;;;;;;;;;;;11.60;99.90;;;;;;10328028;28;84095;-53
2022/05/08 00:26:13;;;;;;;;;;;11.60;99.90;;;;;;10329097;28;84285;-47
2022/05/08 00:31:13;;;;;;;;;;;11.50;99.90;;;;;;10328023;28;85025;-48
2022/05/08 00:36:14;;;;;;;;;;;11.40;99.90;;;;;;10309627;28;84477;-53
2022/05/08 00:41:14;;;;;;;;;;;11.30;99.90;;;;;;10335688;28;85503;-57
2022/05/08 00:46:16;;;;;;;;;;;11.20;99.90;;;;;;10368258;28;84026;-53
2022/05/08 00:51:19;;;;;;;;;;;11.00;99.90;;;;;;10368259;28;84830;-54
2022/05/08 00:56:20;;;;;;;;;;;11.00;99.90;;;;;;10331781;28;85838;-53
2022/05/08 01:01:21;;;;;;;;;;;11.00;99.90;;;;;;10350356;28;85895;-50
2022/05/08 01:06:21;;;;;;;;;;;10.90;99.90;;;;;;10331235;28;87008;-50
2022/05/08 01:11:22;;;;;;;;;;;10.80;99.90;;;;;;10367033;28;84946;-52
2022/05/08 01:16:22;;;;;;;;;;;10.80;99.90;;;;;;10368220;28;84881;-51
2022/05/08 01:21:35;;;;;;;;;;;10.80;99.90;;;;;;10340153;28;84738;-54
2022/05/08 01:26:35;;;;;;;;;;;10.70;99.90;;;;;;10326027;28;85582;-51
2022/05/08 01:31:36;;;;;;;;;;;10.60;99.90;;;;;;10326604;28;85202;-53
2022/05/08 01:36:37;;;;;;;;;;;10.60;99.90;;;;;;10327455;28;84843;-53
2022/05/08 01:41:37;;;;;;;;;;;10.60;99.90;;;;;;10325609;28;101040;-52
2022/05/08 01:46:38;;;;;;;;;;;10.50;99.90;;;;;;10324946;28;84909;-56
2022/05/08 01:51:38;;;;;;;;;;;10.50;99.90;;;;;;10326070;28;101482;-53
2022/05/08 01:56:39;;;;;;;;;;;10.50;99.90;;;;;;10326042;28;84093;-51
2022/05/08 02:01:40;;;;;;;;;;;10.50;99.90;;;;;;10326066;28;84837;-53
2022/05/08 02:06:41;;;;;;;;;;;10.50;99.90;;;;;;10333002;28;84934;-51
2022/05/08 02:11:41;;;;;;;;;;;10.40;99.90;;;;;;10373570;28;85211;-53
2022/05/08 02:16:42;;;;;;;;;;;10.40;99.90;;;;;;10356677;28;86223;-57
2022/05/08 02:21:42;;;;;;;;;;;10.30;99.90;;;;;;10374853;28;84965;-54
2022/05/08 02:26:43;;;;;;;;;;;10.30;99.90;;;;;;10317076;28;86144;-51
2022/05/08 02:31:44;;;;;;;;;;;10.30;99.90;;;;;;10332492;28;84600;-50
2022/05/08 02:36:44;;;;;;;;;;;10.30;99.90;;;;;;10332481;28;84995;-56
2022/05/08 02:41:45;;;;;;;;;;;10.30;99.90;;;;;;10298459;28;92793;-51
2022/05/08 02:46:46;;;;;;;;;;;10.30;99.90;;;;;;10336864;28;84237;-53
2022/05/08 02:51:47;;;;;;;;;;;10.30;99.90;;;;;;10363098;28;86104;-53
2022/05/08 03:02:07;;;;;;;;;;;10.10;99.90;;;;;;10362190;28;85926;-52
2022/05/08 03:07:08;;;;;;;;;;;10.10;99.90;;;;;;10350234;28;84410;-51
2022/05/08 03:12:09;;;;;;;;;;;10.10;99.90;;;;;;10330743;28;84110;-55
2022/05/08 03:17:09;;;;;;;;;;;10.10;99.90;;;;;;10330385;28;84122;-51
2022/05/08 03:22:10;;;;;;;;;;;10.10;99.90;;;;;;10361273;28;92542;-51
2022/05/08 03:27:10;;;;;;;;;;;10.00;99.90;;;;;;10353323;28;86054;-52
2022/05/08 03:32:11;;;;;;;;;;;9.90;99.90;;;;;;10347662;28;85252;-54
2022/05/08 03:37:11;;;;;;;;;;;9.90;99.90;;;;;;10361963;28;86137;-55
2022/05/08 03:42:12;;;;;;;;;;;9.90;99.90;;;;;;10370549;28;88468;-54
2022/05/08 03:47:13;;;;;;;;;;;9.90;99.90;;;;;;10360506;28;84780;-54
2022/05/08 03:52:14;;;;;;;;;;;9.90;99.90;;;;;;10336382;28;85766;-54
2022/05/08 03:57:15;;;;;;;;;;;9.90;99.90;;;;;;10360560;28;84227;-53
2022/05/08 04:02:15;;;;;;;;;;;9.90;99.90;;;;;;10371362;28;84103;-52
2022/05/08 04:07:16;;;;;;;;;;;9.80;99.90;;;;;;10368984;28;84183;-54
2022/05/08 04:12:17;;;;;;;;;;;9.80;99.90;;;;;;10369666;28;85878;-53
2022/05/08 04:17:18;;;;;;;;;;;9.80;99.90;;;;;;10359848;28;86401;-53
2022/05/08 04:27:38;;;;;;;;;;;9.70;99.90;;;;;;10369653;28;84157;-52
2022/05/08 04:32:39;;;;;;;;;;;9.80;99.70;;;;;;10368599;28;84183;-50
2022/05/08 04:37:39;;;;;;;;;;;9.90;99.90;;;;;;10368604;28;84976;-54
2022/05/08 04:42:40;;;;;;;;;;;9.90;73.00;;;;;;10357454;28;84755;-50
2022/05/08 04:47:40;;;;;;;;;;;10.00;74.60;;;;;;10366519;28;93475;-54
2022/05/08 04:52:41;;;;;;;;;;;10.00;51.10;;;;;;10368294;28;85295;-54
2022/05/08 04:57:41;;;;;;;;;;;10.00;18.60;;;;;;10324595;28;85183;-50
2022/05/08 05:02:44;;;;;;;;;;;10.00;12.40;;;;;;10308947;28;85058;-56
2022/05/08 05:07:44;;;;;;;;;;;9.90;10.90;;;;;;10327733;28;84914;-56
2022/05/08 05:12:45;;;;;;;;;;;10.00;5.00;;;;;;10326781;28;84115;-53
2022/05/08 05:17:45;;;;;;;;;;;10.00;1.00;;;;;;10346136;28;85109;-51
2022/05/08 05:22:46;;;;;;;;;;;9.90;1.00;;;;;;10366919;28;84328;-52
2022/05/08 05:27:46;;;;;;;;;;;10.10;1.00;;;;;;10366482;28;84313;-51
2022/05/08 05:32:47;;;;;;;;;;;10.20;1.00;;;;;;10366984;28;92211;-50
2022/05/08 05:37:48;;;;;;;;;;;10.30;1.00;;;;;;10362357;28;84160;-55
2022/05/08 05:42:48;;;;;;;;;;;10.40;1.00;;;;;;10336683;28;86163;-54
2022/05/08 05:47:49;;;;;;;;;;;10.30;1.00;;;;;;10353684;28;92370;-51
2022/05/08 05:52:50;;;;;;;;;;;10.30;1.00;;;;;;10335174;28;87241;-53
2022/05/08 05:57:50;;;;;;;;;;;10.30;1.00;;;;;;10314990;28;84924;-51
2022/05/08 06:02:51;;;;;;;;;;;10.20;1.00;;;;;;10341143;28;84696;-55
2022/05/08 06:07:51;;;;;;;;;;;10.40;1.00;;;;;;10372109;28;94277;-54
2022/05/08 06:12:52;;;;;;;;;;;10.40;1.00;;;;;;10364417;28;85191;-52
2022/05/08 06:17:52;;;;;;;;;;;10.50;1.00;;;;;;10372464;28;95973;-51
2022/05/08 06:22:54;;;;;;;;;;;10.60;1.00;;;;;;10353354;28;84877;-53
2022/05/08 06:27:55;;;;;;;;;;;10.70;1.00;;;;;;10371850;28;84646;-54
2022/05/08 06:32:55;;;;;;;;;;;10.70;1.00;;;;;;10367656;28;93011;-53
2022/05/08 06:37:56;;;;;;;;;;;10.70;1.00;;;;;;10354443;28;85305;-57
2022/05/08 06:42:56;;;;;;;;;;;10.90;1.00;;;;;;10335119;28;86315;-55
2022/05/08 06:47:57;;;;;;;;;;;11.30;1.00;;;;;;10329447;28;89482;-55
2022/05/08 06:52:57;;;;;;;;;;;11.50;1.00;;;;;;10311460;28;97519;-53
2022/05/08 06:57:58;;;;;;;;;;;11.60;1.00;;;;;;10355172;28;84956;-55
2022/05/08 07:03:01;;;;;;;;;;;11.90;1.00;;;;;;10353267;28;86229;-53
2022/05/08 07:08:02;;;;;;;;;;;12.30;1.00;;;;;;10358194;28;85218;-50
2022/05/08 07:13:02;;;;;;;;;;;12.80;1.00;;;;;;10353390;28;84660;-58
2022/05/08 07:18:03;;;;;;;;;;;13.10;1.00;;;;;;10371095;28;84983;-56
2022/05/08 07:23:07;;;;;;;;;;;13.50;1.00;;;;;;10356510;28;84743;-49
2022/05/08 07:28:08;;;;;;;;;;;13.80;1.00;;;;;;10355002;28;84878;-55
2022/05/08 07:33:09;;;;;;;;;;;14.90;99.90;;;;;;10352802;28;84213;-53
2022/05/08 07:38:10;;;;;;;;;;;15.30;99.90;;;;;;10344753;28;85275;-53
2022/05/08 07:43:13;;;;;;;;;;;15.60;1.00;;;;;;10350483;28;85015;-51
2022/05/08 07:48:13;;;;;;;;;;;15.80;1.00;;;;;;10349154;28;85035;-54
2022/05/08 07:53:15;;;;;;;;;;;16.00;1.00;;;;;;10348426;28;84114;-56
2022/05/08 07:58:15;;;;;;;;;;;16.70;1.00;;;;;;10349131;28;84280;-55
2022/05/08 08:03:17;;;;;;;;;;;16.70;99.90;;;;;;10332111;28;86612;-55
2022/05/08 08:08:21;;;;;;;;;;;16.60;1.00;;;;;;10346179;28;84354;-55
2022/05/08 08:13:23;;;;;;;;;;;15.90;1.00;;;;;;10351512;28;84294;-52
2022/05/08 08:18:27;;;;;;;;;;;15.80;99.90;;;;;;10366546;28;84845;-56
2022/05/08 08:23:27;;;;;;;;;;;15.80;1.00;;;;;;10355042;28;84182;-51
2022/05/08 08:28:28;;;;;;;;;;;16.20;99.90;;;;;;10347296;28;84717;-54
2022/05/08 08:33:30;;;;;;;;;;;16.20;99.90;;;;;;10346415;28;86905;-55
2022/05/08 08:38:31;;;;;;;;;;;16.40;99.90;;;;;;10363175;28;84512;-50
2022/05/08 08:48:56;;;;;;;;;;;16.10;54.10;;;;;;10298563;28;86128;-56
2022/05/08 08:53:57;;;;;;;;;;;16.20;1.00;;;;;;10367035;28;84847;-52
2022/05/08 08:58:59;;;;;;;;;;;16.40;1.00;;;;;;10349616;28;84873;-55
2022/05/08 09:04:00;;;;;;;;;;;16.80;99.90;;;;;;10355745;28;84141;-53
2022/05/08 09:09:23;;;;;;;;;;;17.20;99.90;;;;;;10345999;28;84460;-55
2022/05/08 09:14:33;;;;;;;;;;;17.80;99.90;;;;;;10367912;28;85078;-56
2022/05/08 09:19:37;;;;;;;;;;;18.20;1.00;;;;;;10366545;28;84017;-53
2022/05/08 09:24:49;;;;;;;;;;;17.90;1.00;;;;;;10349289;28;86829;-54
2022/05/08 09:30:05;;;;;;;;;;;18.90;99.90;;;;;;10361138;28;84248;-54
2022/05/08 09:35:06;;;;;;;;;;;19.00;1.00;;;;;;10349927;28;84937;-54
2022/05/08 09:40:20;;;;;;;;;;;18.90;99.90;;;;;;10330934;28;87231;-58
2022/05/08 09:45:21;;;;;;;;;;;19.80;1.00;;;;;;10357236;22;86195;-43
2022/05/08 09:50:21;;;;;;;;;;;21.10;1.00;;;;;;10281640;28;84996;-46
2022/05/08 09:55:22;;;;;;;;;;;21.50;1.00;;;;;;10277523;28;85999;-46
2022/05/08 10:00:23;;;;;;;;;;;22.10;99.90;;;;;;10281316;28;84293;-50
2022/05/08 10:05:23;;;;;;;;;;;22.50;99.90;;;;;;10281443;28;84978;-45
2022/05/08 10:15:46;;;;;;;;;;;22.50;1.00;;;;;;10281428;28;84410;-48
2022/05/08 10:21:07;;;;;;;;;;;23.10;1.00;;;;;;10284696;28;84105;-50
2022/05/08 10:26:14;;;;;;;;;;;22.90;1.00;;;;;;10284055;28;84936;-46
2022/05/08 10:31:34;;;;;;;;;;;23.50;1.00;;;;;;10290988;28;84054;-47
2022/05/08 10:36:34;;;;;;;;;;;23.80;99.90;;;;;;10291421;28;84126;-49
2022/05/08 10:41:44;;;;;;;;;;;24.20;99.90;;;;;;10291367;28;84234;-47
2022/05/08 10:46:45;;;;;;;;;;;24.50;99.90;;;;;;10291379;28;84155;-47
2022/05/08 10:51:45;;;;;;;;;;;25.00;99.90;;;;;;10288077;28;84500;-48
2022/05/08 10:56:46;;;;;;;;;;;25.00;99.90;;;;;;10284180;28;84780;-46
2022/05/08 11:01:50;;;;;;;;;;;25.20;1.00;;;;;;10289219;28;84921;-48
2022/05/08 11:06:50;;;;;;;;;;;25.30;1.00;;;;;;10280474;28;84257;-47
2022/05/08 11:11:51;;;;;;;;;;;24.00;99.90;;;;;;10283505;28;84938;-58
2022/05/08 11:16:52;;;;;;;;;;;24.90;99.90;;;;;;10272701;28;86525;-47
2022/05/08 11:22:04;;;;;;;;;;;24.90;1.00;;;;;;10267635;28;86058;-47
2022/05/08 11:27:10;;;;;;;;;;;25.00;1.00;;;;;;10285473;28;84230;-46
2022/05/08 11:37:30;;;;;;;;;;;24.40;1.00;;;;;;10269020;28;84998;-46
2022/05/08 11:42:38;;;;;;;;;;;24.90;1.00;;;;;;10285948;28;85063;-49
2022/05/08 11:47:38;;;;;;;;;;;24.30;1.00;;;;;;10284816;28;84907;-50
2022/05/08 11:52:39;;;;;;;;;;;24.80;1.00;;;;;;10280779;28;85016;-52
2022/05/08 11:57:41;;;;;;;;;;;25.00;1.00;;;;;;10285815;28;84560;-49
2022/05/08 12:02:42;;;;;;;;;;;25.50;1.00;;;;;;10286911;28;84383;-50
2022/05/08 12:07:45;;;;;;;;;;;26.00;1.00;;;;;;10289192;28;84172;-47
2022/05/08 12:12:46;;;;;;;;;;;25.80;99.90;;;;;;10270506;28;86139;-51
2022/05/08 12:17:46;;;;;;;;;;;26.10;99.90;;;;;;10289395;28;84054;-49
2022/05/08 12:23:05;;;;;;;;;;;25.00;99.90;;;;;;10289950;28;85027;-48
2022/05/08 12:28:06;;;;;;;;;;;24.40;99.90;;;;;;10287252;28;84541;-47
2022/05/08 12:33:07;;;;;;;;;;;25.10;99.90;;;;;;10270452;28;84924;-49
2022/05/08 12:38:07;;;;;;;;;;;25.20;1.00;;;;;;10270526;28;85003;-50
2022/05/08 12:43:09;;;;;;;;;;;24.80;1.00;;;;;;10287379;28;84806;-51
2022/05/08 12:48:11;;;;;;;;;;;24.70;99.90;;;;;;10270025;28;84817;-48
2022/05/08 12:53:11;;;;;;;;;;;25.50;99.90;;;;;;10288137;28;84778;-47
2022/05/08 13:03:31;;;;;;;;;;;26.30;99.90;;;;;;10286776;28;84145;-48
2022/05/08 13:08:31;;;;;;;;;;;26.40;99.90;;;;;;10285919;28;85067;-48
2022/05/08 13:13:34;;;;;;;;;;;26.00;1.00;;;;;;10286276;28;84247;-49
2022/05/08 13:18:35;;;;;;;;;;;25.90;1.00;;;;;;10285655;28;84871;-48
2022/05/08 13:23:36;;;;;;;;;;;26.60;1.00;;;;;;10286892;28;87020;-50
2022/05/08 13:28:36;;;;;;;;;;;26.30;1.00;;;;;;10286985;28;84166;-47
2022/05/08 13:33:37;;;;;;;;;;;26.20;1.00;;;;;;10286736;28;84063;-47
2022/05/08 13:38:42;;;;;;;;;;;27.00;1.00;;;;;;10286148;28;84159;-49
2022/05/08 13:43:42;;;;;;;;;;;27.20;1.00;;;;;;10268521;28;86635;-49
2022/05/08 13:48:43;;;;;;;;;;;27.30;1.00;;;;;;10285042;28;84198;-50
2022/05/08 13:53:44;;;;;;;;;;;26.70;1.00;;;;;;10286370;28;84102;-47
2022/05/08 13:58:44;;;;;;;;;;;25.90;1.00;;;;;;10286265;28;85168;-51
2022/05/08 14:03:45;;;;;;;;;;;25.60;1.00;;;;;;10288839;28;85860;-50
2022/05/08 14:08:45;;;;;;;;;;;25.70;1.00;;;;;;10293423;28;85001;-48
2022/05/08 14:13:46;;;;;;;;;;;25.40;1.00;;;;;;10275247;28;87095;-51
2022/05/08 14:18:46;;;;;;;;;;;24.80;1.00;;;;;;10292462;28;84143;-47
2022/05/08 14:23:47;;;;;;;;;;;24.00;1.00;;;;;;10293002;28;85133;-48
2022/05/08 14:28:47;;;;;;;;;;;22.80;1.00;;;;;;10292855;28;84865;-51
2022/05/08 14:39:07;;;;;;;;;;;21.80;1.00;;;;;;10292059;28;84924;-52
2022/05/08 14:44:07;;;;;;;;;;;20.20;1.00;;;;;;10291909;28;84007;-44
2022/05/08 14:49:11;;;;;;;;;;;20.60;1.00;;;;;;10290503;28;84106;-46
2022/05/08 14:54:11;;;;;;;;;;;20.70;1.00;;;;;;10290063;28;88097;-46
2022/05/08 14:59:12;;;;;;;;;;;20.90;1.00;;;;;;10291963;28;84379;-46
2022/05/08 15:04:12;;;;;;;;;;;20.90;1.00;;;;;;10289896;28;87974;-50
2022/05/08 15:09:13;;;;;;;;;;;20.60;1.00;;;;;;10278184;28;84871;-48
2022/05/08 15:14:13;;;;;;;;;;;20.50;1.00;;;;;;10286950;28;84945;-46
2022/05/08 15:19:14;;;;;;;;;;;20.40;1.00;;;;;;10286217;28;96541;-48
2022/05/08 15:24:15;;;;;;;;;;;20.30;1.00;;;;;;10271813;28;85991;-47
2022/05/08 15:29:17;;;;;;;;;;;20.20;1.00;;;;;;10290195;28;84960;-46
2022/05/08 15:34:18;;;;;;;;;;;19.90;1.00;;;;;;10277490;28;84912;-47
2022/05/08 15:39:18;;;;;;;;;;;19.80;1.00;;;;;;10290214;28;84072;-51
2022/05/08 15:44:19;;;;;;;;;;;19.70;1.00;;;;;;10273803;28;85072;-52
2022/05/08 15:49:19;;;;;;;;;;;19.50;1.00;;;;;;10286674;28;84211;-50
2022/05/08 15:54:20;;;;;;;;;;;19.40;1.00;;;;;;10305508;22;84793;-54
2022/05/08 15:59:20;;;;;;;;;;;19.50;1.00;;;;;;10290541;28;84143;-58
2022/05/08 16:04:21;;;;;;;;;;;19.50;1.00;;;;;;10276473;28;84380;-57
2022/05/08 16:09:22;;;;;;;;;;;19.40;1.00;;;;;;10231879;28;85886;-57
2022/05/08 16:25:03;;;;;;;;;;;19.10;1.00;;;;;;10289839;28;84387;-56
2022/05/08 16:30:04;;;;;;;;;;;19.10;1.00;;;;;;10289591;28;84077;-57
2022/05/08 16:35:05;;;;;;;;;;;18.90;1.00;;;;;;10287871;28;84090;-58
2022/05/08 16:40:06;;;;;;;;;;;18.90;1.00;;;;;;10248055;28;84715;-57
2022/05/08 16:45:11;;;;;;;;;;;18.70;1.00;;;;;;10248571;28;84301;-58
2022/05/08 16:50:11;;;;;;;;;;;18.70;1.00;;;;;;10247624;28;84877;-60
2022/05/08 16:55:14;;;;;;;;;;;18.60;1.00;;;;;;10281860;28;84899;-55
2022/05/08 17:00:15;;;;;;;;;;;18.40;1.00;;;;;;10289612;28;84829;-54
2022/05/08 17:05:16;;;;;;;;;;;18.30;1.00;;;;;;10290489;28;84875;-55
2022/05/08 17:10:16;;;;;;;;;;;18.20;1.00;;;;;;10268398;28;84662;-61
2022/05/08 17:15:17;;;;;;;;;;;18.30;1.00;;;;;;10288876;28;85266;-61
2022/05/08 17:20:17;;;;;;;;;;;18.20;1.00;;;;;;10242662;28;85650;-59
2022/05/08 17:25:20;;;;;;;;;;;18.20;1.00;;;;;;10247906;28;84898;-58
2022/05/08 17:30:21;;;;;;;;;;;18.10;1.00;;;;;;10247398;28;85621;-58
2022/05/08 17:35:21;;;;;;;;;;;18.00;1.00;;;;;;10293824;28;85104;-59
2022/05/08 17:40:24;;;;;;;;;;;18.00;1.00;;;;;;10307554;28;84860;-59
2022/05/08 17:45:24;;;;;;;;;;;17.90;1.00;;;;;;10288310;28;84977;-61
2022/05/08 17:50:25;;;;;;;;;;;17.90;1.00;;;;;;10287634;28;84350;-57
2022/05/08 17:55:26;;;;;;;;;;;17.70;1.00;;;;;;10293985;28;85057;-56
2022/05/08 18:00:26;;;;;;;;;;;17.70;1.00;;;;;;10294165;28;84080;-60
2022/05/08 18:10:47;;;;;;;;;;;17.60;1.00;;;;;;10293397;28;84735;-56
2022/05/08 18:15:47;;;;;;;;;;;17.50;1.00;;;;;;10293219;28;85637;-56
2022/05/08 18:20:48;;;;;;;;;;;17.40;1.00;;;;;;10270074;28;84576;-56
2022/05/08 18:25:49;;;;;;;;;;;17.40;1.00;;;;;;10284754;28;84758;-58
2022/05/08 18:30:50;;;;;;;;;;;17.30;1.00;;;;;;10287818;28;84032;-56
2022/05/08 18:35:51;;;;;;;;;;;17.20;1.00;;;;;;10263308;28;84769;-56
2022/05/08 18:40:52;;;;;;;;;;;17.20;1.00;;;;;;10282569;28;84226;-56
2022/05/08 18:45:52;;;;;;;;;;;17.00;1.00;;;;;;10283949;28;85217;-56
2022/05/08 18:50:53;;;;;;;;;;;17.00;1.00;;;;;;10273402;28;84119;-52
2022/05/08 18:55:53;;;;;;;;;;;16.90;1.00;;;;;;10287033;28;84783;-54
2022/05/08 19:00:55;;;;;;;;;;;16.80;1.00;;;;;;10276724;28;84876;-59
2022/05/08 19:05:55;;;;;;;;;;;16.70;1.00;;;;;;10270085;28;84310;-60
2022/05/08 19:10:56;;;;;;;;;;;16.60;1.00;;;;;;10283153;28;85033;-57
2022/05/08 19:15:56;;;;;;;;;;;16.50;1.00;;;;;;10281351;28;85439;-62
2022/05/08 19:20:57;;;;;;;;;;;16.40;1.00;;;;;;10282951;28;84442;-57
2022/05/08 19:25:58;;;;;;;;;;;16.40;1.00;;;;;;10289549;28;84154;-55
2022/05/08 19:41:37;;;;;;;;;;;15.90;99.90;;;;;;10271433;28;85974;-54
2022/05/08 19:46:37;;;;;;;;;;;15.90;99.90;;;;;;10289177;28;84927;-57
2022/05/08 19:51:38;;;;;;;;;;;15.70;99.90;;;;;;10288679;28;86070;-55
2022/05/08 19:56:38;;;;;;;;;;;15.60;99.90;;;;;;10274395;28;84938;-55
2022/05/08 20:01:39;;;;;;;;;;;15.50;99.90;;;;;;10288712;28;87630;-53
2022/05/08 20:06:39;;;;;;;;;;;15.40;1.00;;;;;;10286157;28;84835;-53
2022/05/08 20:11:40;;;;;;;;;;;15.30;1.00;;;;;;10287401;28;84926;-55
2022/05/08 20:16:41;;;;;;;;;;;15.30;1.00;;;;;;10288843;28;84249;-55
2022/05/08 20:27:01;;;;;;;;;;;15.10;1.00;;;;;;10270634;28;84174;-56
2022/05/08 20:32:02;;;;;;;;;;;15.00;92.60;;;;;;10288460;28;84039;-55
2022/05/08 20:37:03;;;;;;;;;;;14.80;99.90;;;;;;10288170;28;84064;-56
2022/05/08 20:42:06;;;;;;;;;;;14.80;1.00;;;;;;10263909;28;85900;-56
2022/05/08 20:47:06;;;;;;;;;;;14.70;1.00;;;;;;10287486;28;84964;-56
2022/05/08 20:52:07;;;;;;;;;;;14.60;1.00;;;;;;10287011;28;84207;-55
2022/05/08 20:57:08;;;;;;;;;;;14.50;99.90;;;;;;10280402;28;84808;-56
2022/05/08 21:02:08;;;;;;;;;;;14.30;1.00;;;;;;10246460;28;84290;-57
2022/05/08 21:12:28;;;;;;;;;;;14.10;22.40;;;;;;10245290;28;84310;-56
2022/05/08 21:17:29;;;;;;;;;;;14.00;99.90;;;;;;10245664;28;85087;-56
2022/05/08 21:22:30;;;;;;;;;;;13.80;1.00;;;;;;10284957;28;84202;-54
2022/05/08 21:27:30;;;;;;;;;;;13.80;99.90;;;;;;10285968;28;85096;-53
2022/05/08 21:32:31;;;;;;;;;;;13.70;99.90;;;;;;10270947;28;84137;-55
2022/05/08 21:37:32;;;;;;;;;;;13.70;99.90;;;;;;10245115;28;84915;-56
2022/05/08 21:42:33;;;;;;;;;;;13.60;1.00;;;;;;10245703;28;84934;-57
2022/05/08 21:47:33;;;;;;;;;;;13.50;1.00;;;;;;10270697;28;84118;-54
2022/05/08 21:52:34;;;;;;;;;;;13.40;1.00;;;;;;10284991;28;84952;-55
2022/05/08 21:57:35;;;;;;;;;;;13.20;1.00;;;;;;10278866;22;84178;-57
2022/05/08 22:02:35;;;;;;;;;;;13.10;99.90;;;;;;10265160;28;84060;-55
2022/05/08 22:07:38;;;;;;;;;;;13.00;1.00;;;;;;10268825;28;84710;-55
2022/05/08 22:12:39;;;;;;;;;;;12.90;76.50;;;;;;10286191;28;84882;-57
2022/05/08 22:17:40;;;;;;;;;;;12.90;1.00;;;;;;10285079;28;84914;-52
2022/05/08 22:22:42;;;;;;;;;;;12.80;1.00;;;;;;10269411;28;84165;-56
2022/05/08 22:27:44;;;;;;;;;;;12.70;99.90;;;;;;10292165;28;84901;-52
2022/05/08 22:32:44;;;;;;;;;;;12.50;1.00;;;;;;10291397;28;84963;-53
2022/05/08 22:37:45;;;;;;;;;;;12.50;1.00;;;;;;10293302;28;84741;-50
2022/05/08 22:42:45;;;;;;;;;;;12.40;1.00;;;;;;10292460;28;85194;-55
2022/05/08 22:47:46;;;;;;;;;;;12.30;99.90;;;;;;10291471;28;84273;-56
2022/05/08 22:52:47;;;;;;;;;;;12.20;99.90;;;;;;10235909;28;84933;-56
2022/05/08 22:57:47;;;;;;;;;;;12.10;1.00;;;;;;10250816;28;84788;-51
2022/05/08 23:02:50;;;;;;;;;;;12.00;1.00;;;;;;10251543;28;84896;-51
2022/05/08 23:07:51;;;;;;;;;;;11.90;1.00;;;;;;10278187;28;84166;-55
2022/05/08 23:12:51;;;;;;;;;;;11.90;1.00;;;;;;10291453;28;84805;-54
2022/05/08 23:17:53;;;;;;;;;;;11.80;1.00;;;;;;10286772;28;84918;-55
2022/05/08 23:22:54;;;;;;;;;;;11.70;1.00;;;;;;10290900;28;85007;-53
2022/05/08 23:27:55;;;;;;;;;;;11.70;1.00;;;;;;10262730;28;84137;-48
2022/05/08 23:32:55;;;;;;;;;;;11.60;1.00;;;;;;10249827;28;84918;-52
2022/05/08 23:37:56;;;;;;;;;;;11.60;1.00;;;;;;10231895;28;85014;-56
2022/05/08 23:42:59;;;;;;;;;;;11.50;25.20;;;;;;10287521;28;84309;-55
2022/05/08 23:48:00;;;;;;;;;;;11.40;93.70;;;;;;10277366;28;84287;-60
2022/05/08 23:53:00;;;;;;;;;;;11.40;99.90;;;;;;10244521;28;84207;-55
2022/05/08 23:58:01;;;;;;;;;;;11.30;99.90;;;;;;10248167;28;84174;-56
